Aviation Digital Data Service (ADDS)

Output produced by METARs form (0717 UTC 24 March 2019)
found at http://www.aviationweather.gov/metar/data/
 
LFLB 240700Z AUTO 16002KT CAVOK 03/02 Q1026 NOSIG
TAF LFLB 240500Z 2406/2506 VRB03KT CAVOK 
     PROB30 
     TEMPO 2406/2407 4000 BR 
     BECMG 2409/2412 36005KT 
     PROB30 
     TEMPO 2502/2506 0700 FG BKN004
       
LFBZ 240700Z AUTO 20003KT CAVOK 08/06 Q1025 NOSIG
TAF LFBZ 240500Z 2406/2506 VRB02KT CAVOK 
     BECMG 2408/2410 30008KT 
     PROB30 
     TEMPO 2418/2506 BKN003
       
LFRT 240700Z AUTO 06005KT 2000 BR BKN004 OVC008 08/08 Q1029
LFRM 240700Z AUTO 00000KT 5000 BR OVC042 07/05 Q1028 NOSIG
TAF LFRM 240500Z 2406/2506 01007KT 6000 BKN030 
     PROB30 
     TEMPO 2406/2409 4000 BR
       
LFLW 240630Z AUTO 00000KT CAVOK 05/02 Q1025 NOSIG
TAF LFLW 240500Z 2406/2415 07005KT CAVOK
       
LFLC 240700Z AUTO 01003KT CAVOK 05/01 Q1026 NOSIG
TAF LFLC 240200Z 2403/2503 VRB03KT CAVOK 
     PROB30 
     TEMPO 2404/2407 3500 BR NSC 
     BECMG 2411/2414 01010KT SCT045 
     BECMG 2415/2418 BKN030
       
LFOA 240700Z AUTO VRB01KT 0200 R24/M0200N FG VV/// 02/02 Q1027 BECMG 4000 BR SCT005
TAF AMD LFOA 240645Z 2406/2503 VRB02KT 0200 FG VV/// 
     BECMG 2408/2410 4000 BR SCT005 
     BECMG 2410/2412 33010KT 9999 NSW SCT025
       
LFSB 240700Z 00000KT 3300 BR NSC 03/03 Q1025 BECMG 7000 NSW
TAF LFSB 240500Z 2406/2506 34005KT 2000 BR NSC 
     PROB40 2406/2407 0800 BCFG 
     BECMG 2407/2410 7000 NSW 
     BECMG 2414/2416 26010KT 
     BECMG 2416/2418 BKN045 
     BECMG 2502/2505 34003KT FEW013 BKN020 
     PROB40 
     TEMPO 2503/2506 4000 BR BKN012
       
LFQB 240700Z AUTO 33004KT 2300 BR NSC 01/00 Q1027
LFBL 240700Z AUTO VRB02KT CAVOK 10/02 Q1026 NOSIG
TAF LFBL 240500Z 2406/2506 01008KT CAVOK 
     TEMPO 2501/2505 BKN025
       
LFBI 240700Z AUTO 33003KT 2000 BR NSC 03/03 Q1028 TEMPO VV/// BECMG 3000 BR
TAF LFBI 240500Z 2406/2506 02008KT 3000 BR NSC 
     PROB40 
     TEMPO 2406/2408 0600 FG VV/// 
     BECMG 2409/2411 CAVOK
       
LFBO 240700Z AUTO 21004KT CAVOK 07/05 Q1025 NOSIG
TAF LFBO 240500Z 2406/2512 VRB03KT CAVOK 
     BECMG 2409/2411 34008KT 
     BECMG 2502/2504 26006KT
       
LFMH 240700Z AUTO 05001KT CAVOK 04/02 Q1026 NOSIG
TAF LFMH 240200Z 2403/2503 VRB02KT CAVOK 
     PROB30 
     TEMPO 2404/2407 3500 BR NSC 
     BECMG 2414/2417 34010KT BKN040
       
LFAQ 240700Z AUTO 02009KT 7000 BKN035 OVC041 06/05 Q1028 TEMPO BKN013 OVC035
TAF LFAQ 240500Z 2406/2415 01010KT 9999 OVC035 
     TEMPO 2406/2409 BKN013 OVC035
       
LFOJ 240700Z AUTO 00000KT 2300 BR OVC033 06/06 Q1027
LFBU 240700Z AUTO 02009KT 4100 BR NSC 06/04 Q1026 BECMG 9999 NSW
TAF LFBU 240500Z 2406/2506 02008KT 6000 NSC 
     PROB40 
     TEMPO 2406/2408 3000 BR 
     BECMG 2408/2410 CAVOK 
     PROB30 
     TEMPO 2503/2506 BKN012
       
LFLY 240700Z AUTO 14001KT 6000 NSC 06/04 Q1025 NOSIG
TAF LFLY 240500Z 2406/2506 VRB03KT CAVOK 
     PROB30 
     TEMPO 2406/2407 4800 BR 
     BECMG 2410/2413 01007KT 
     TEMPO 2420/2506 BKN045 
     PROB40 
     TEMPO 2503/2506 BKN012
       
LFKJ 240700Z AUTO 05005KT CAVOK 09/04 Q1023 BECMG 23010KT
TAF LFKJ 240200Z 2403/2503 04005KT CAVOK 
     BECMG 2408/2410 23010KT 
     BECMG 2418/2420 05004KT 
     TEMPO 2421/2503 BKN007
       
LFMO 240700Z AUTO 00000KT CAVOK 10/05 Q1023 NOSIG
TAF LFMO 240200Z 2403/2503 36005KT CAVOK 
     BECMG 2418/2420 35015G25KT 
     TEMPO 2422/2503 35020G35KT
       
LFRK 240700Z AUTO VRB03KT 9999 FEW020 OVC041 08/06 Q1029 TEMPO BKN008
TAF LFRK 240500Z 2406/2415 04005KT 9999 BKN030 
     TEMPO 2406/2410 BKN008 
     BECMG 2410/2412 02010KT
       
LFMV 240700Z AUTO VRB02KT CAVOK 08/04 Q1023 NOSIG
TAF LFMV 240200Z 2403/2503 VRB05KT CAVOK 
     BECMG 2416/2418 32010KT 
     BECMG 2421/2423 34015G30KT
       
LFBC 240700Z AUTO 36002KT CAVOK 06/05 Q1026
LFLU 240700Z AUTO 03004KT CAVOK 08/02 Q1024
LFPG 240700Z 01007KT 350V100 3500 BR FEW006 BKN008 08/06 Q1028 NOSIG
TAF LFPG 240500Z 2406/2512 01008KT 3500 BR BKN006 TX13/2414Z TN03/2505Z 
     BECMG 2407/2409 7000 NSW BKN012 
     BECMG 2410/2412 BKN040 
     BECMG 2413/2415 CAVOK
       
LFBG 240700Z AUTO 04003KT 5000 1500 R23/1300D BR NSC 08/05 Q1026
LFOC 240700Z AUTO 35003KT 320V020 2500 BR OVC036 08/07 Q1028
LFPT 240700Z AUTO 03008KT 9000 OVC014 08/05 Q1028
LFMN 240700Z 33008KT CAVOK 14/M01 Q1022 NOSIG
TAF LFMN 240200Z 2403/2509 34010KT CAVOK 
     BECMG 2409/2411 18010KT 
     BECMG 2416/2418 VRB05KT 
     PROB30 
     TEMPO 2423/2506 07010KT 4000 BR BKN010 
     BECMG 2507/2509 09010KT
       
LFLX 240700Z AUTO VRB02KT 2800 BR NSC 04/03 Q1027 TEMPO 0400 FG VV///
TAF LFLX 240500Z 2406/2512 02007KT 3500 BR NSC 
     TEMPO 2406/2409 2000 BR BKN002 
     PROB30 
     TEMPO 2406/2408 0400 FG VV/// 
     BECMG 2409/2411 9999 NSW SCT030 
     PROB30 
     TEMPO 2504/2508 2500 MIFG
       
LFOV 240700Z AUTO 35006KT 3800 BR OVC046 07/06 Q1029
LFST 240700Z AUTO 00000KT 4400 BR FEW012 05/04 Q1025 BECMG 7000 NSW
TAF LFST 240500Z 2406/2506 33005KT 4000 BR NSC 
     BECMG 2406/2409 7000 NSW 
     TEMPO 2418/2503 BKN030
       
LFSN 240700Z AUTO 35001KT 1900 BR NSC 02/01 Q1026
LFOE 240700Z AUTO 36005KT 6000 OVC012 08/06 Q1028 TEMPO 3000 BR BKN008
TAF AMD LFOE 240529Z 2405/2503 36006KT 6000 BKN012 
     TEMPO 2405/2409 3000 BR BKN008 
     BECMG 2409/2412 BKN020 
     BECMG 2500/2503 3000 BR
       
LFQG 240630Z AUTO 00000KT 0150 FG VV/// 03/03 Q1026
LFTW 240700Z AUTO 02006KT CAVOK 14/04 Q1023 NOSIG
TAF LFTW 240200Z 2403/2503 01010KT CAVOK 
     BECMG 2412/2414 VRB05KT 
     BECMG 2419/2421 36010KT 
     BECMG 2422/2424 36015G25KT
       
LFRB 240700Z AUTO 02003KT 0400 R25/0800U R07/0550U FG VV/// 06/05 Q1030 BECMG 4000 BR BKN006
TAF LFRB 240500Z 2406/2512 05008KT 0500 FG VV/// 
     BECMG 2406/2409 4000 BR BKN006 
     BECMG 2409/2412 9999 NSW BKN020 
     TEMPO 2412/2418 03012G24KT 
       
LFGA 240700Z AUTO VRB01KT CAVOK 06/03 Q1025
LFBH 240700Z AUTO 05007KT 3400 BR NSC 06/05 Q1027 BECMG 9999 NSW
TAF LFBH 240500Z 2406/2506 03010KT 3000 BR NSC 
     BECMG 2406/2408 CAVOK
       
LFBA 240700Z AUTO 00000KT CAVOK 04/03 Q1025 NOSIG
TAF LFBA 240500Z 2406/2415 VRB02KT CAVOK 
     BECMG 2409/2411 34007KT
       
LFRJ 240700Z AUTO VRB02KT 1800 BR OVC036 06/06 Q1030
LFRH 240700Z AUTO 03007KT 4800 BR NSC 06/05 Q1029 TEMPO BKN004
TAF AMD LFRH 240533Z 2406/2506 04010KT 7000 BKN060 
     TEMPO 2406/2409 4000 BR BKN004 
     BECMG 2410/2411 BKN030 
     BECMG 2414/2416 CAVOK 
     TEMPO 2500/2506 3000 BR
       
LFRO 240700Z AUTO 02003KT 350V070 3700 BR SCT007 SCT012 BKN018 09/08 Q1030 BECMG 9999 NSW
TAF LFRO 240500Z 2406/2506 06005KT 3000 BR BKN006 
     BECMG 2407/2410 9999 NSW BKN020
       
LFPB 240700Z AUTO 36005KT 330V030 5000 BR OVC010 08/06 Q1028 BECMG BKN015
TAF LFPB 240500Z 2406/2506 01008KT 4500 BR BKN008 
     BECMG 2407/2409 7000 NSW BKN015 
     BECMG 2412/2414 CAVOK
       
LFMC 240700Z AUTO 00000KT 9999 ////// 05/01 Q1023
LFTH 240700Z AUTO 01003KT CAVOK 09/05 Q1023 NOSIG
TAF LFTH 240200Z 2403/2503 VRB05KT CAVOK 
     BECMG 2410/2412 21010KT 
     PROB40 
     TEMPO 2422/2503 VRB02KT 4000 BR
       
LFAT 240700Z AUTO 33004KT 290V360 9999 NCD 06/04 Q1029 NOSIG
TAF LFAT 240500Z 2406/2415 06006KT CAVOK 
     BECMG 2410/2412 34012KT
       
LFMI 240700Z AUTO 02006KT CAVOK 12/02 Q1023 NOSIG
TAF LFMI 240200Z 2403/2503 VRB05KT CAVOK 
     BECMG 2412/2414 20010KT 
     BECMG 2419/2421 35010KT 
     BECMG 2500/2502 35015G25KT
       
LFRI 240700Z AUTO 05006KT 4100 BR NSC 06/05 Q1028 BECMG 9999 NSW
TAF LFRI 240500Z 2406/2506 02008KT CAVOK 
     TEMPO 2406/2408 3000 BR
       
LFQQ 240700Z AUTO 02002KT 9999 SCT045 07/04 Q1028 BECMG 02012KT
TAF LFQQ 240500Z 2406/2512 02012KT CAVOK 
     BECMG 2417/2419 VRB02KT 
     BECMG 2500/2503 29012KT 
     BECMG 2509/2511 35015G25KT
       
LFSD 240700Z AUTO 35003KT 340V050 4100 BR NSC 06/04 Q1025
LFBT 240700Z AUTO 16006KT CAVOK 09/03 Q1025 NOSIG
TAF AMD LFBT 240515Z 2406/2506 VRB03KT CAVOK 
     BECMG 2409/2411 36008KT 
     TEMPO 2412/2418 SCT050 
     BECMG 2418/2420 25005KT 
     PROB30 2504/2506 3000 BR BKN005
       
LFMD 240700Z AUTO VRB03KT CAVOK 10/02 Q1023 NOSIG
TAF LFMD 240200Z 2403/2503 VRB02KT CAVOK 
     BECMG 2409/2411 18010KT 
     BECMG 2415/2417 VRB02KT 
     PROB40 
     TEMPO 2502/2503 3000 BR BKN008
       
LFJR 240700Z AUTO 00000KT 3600 BR BKN039 04/04 Q1028 BECMG 9999 NSW
TAF LFJR 240500Z 2406/2415 01007KT 9999 BKN030 
     PROB30 
     TEMPO 2406/2408 4000 BR
       
LFCR 240700Z AUTO 15003KT CAVOK 05/02 Q1024 NOSIG
TAF LFCR 240500Z 2406/2506 VRB03KT CAVOK 
     BECMG 2412/2414 29008KT 
     BECMG 2500/2502 VRB02KT
       
LFRC 240700Z AUTO 09004KT 9999 BKN044 OVC052 08/05 Q1030 NOSIG
TAF LFRC 240500Z 2406/2415 06005KT 9999 BKN030 
     BECMG 2410/2412 35010KT
       
LFCK 240700Z AUTO 00000KT CAVOK 09/04 Q1026 NOSIG
TAF LFCK 240500Z 2406/2415 VRB03KT CAVOK 
     BECMG 2410/2412 29008KT
       
LFMT 240700Z AUTO VRB02KT CAVOK 11/05 Q1023 NOSIG
TAF LFMT 240200Z 2403/2503 VRB05KT CAVOK 
     BECMG 2407/2409 01010KT 
     BECMG 2412/2414 22010KT 
     BECMG 2418/2420 36010KT
       
LFBD 240700Z AUTO 03002KT CAVOK 08/06 Q1026 NOSIG
TAF LFBD 240500Z 2406/2512 02005KT CAVOK TX21/2415Z TN05/2406Z
       
LFJL 240700Z AUTO 36002KT 1700 BR NSC 04/03 Q1026 BECMG 7000 NSW
TAF AMD LFJL 240610Z 2406/2506 03005KT 1500 BR NSC 
     BECMG 2406/2409 7000 NSW 
     TEMPO 2412/2420 33012KT BKN030 
     TEMPO 2503/2506 3000 BR
       
LFRV 240700Z AUTO 03009KT 2200 BR NSC 06/05 Q1028
LFLP 240700Z AUTO 00000KT CAVOK 06/01 Q1025 NOSIG
TAF LFLP 240200Z 2403/2503 VRB03KT CAVOK 
     PROB30 
     TEMPO 2405/2407 4000 MIFG 
     BECMG 2409/2412 24005KT
       
LFSG 240700Z AUTO VRB01KT 0200 R26/M0200D FG BKN007 BKN012 01/00 Q1025
LFBM 240700Z AUTO VRB01KT CAVOK 04/02 Q1026 NOSIG
TAF LFBM 240200Z 2403/2503 04003KT CAVOK
       
LFRZ 240700Z AUTO 02007KT 6000 NSC 06/04 Q1029 TEMPO 4000 BR
TAF LFRZ 240500Z 2406/2506 02008KT CAVOK 
     PROB30 
     TEMPO 2406/2408 4000 BR
       
LFRS 240700Z AUTO 04004KT 7000 NSC 07/05 Q1028 TEMPO 4000 BR
TAF LFRS 240500Z 2406/2512 03008KT CAVOK 
     PROB30 
     TEMPO 2406/2408 4000 BR
       
LFSO 240700Z AUTO 31002KT 0150 R20/M0200D FG VV/// 02/02 Q1025
LFOH 240700Z AUTO 10006KT 9999 OVC044 07/05 Q1029 BECMG 36010KT
TAF LFOH 240500Z 2406/2506 07010KT 9999 BKN035 
     BECMG 2408/2411 36010KT
       
LFPO 240700Z 04009KT 3500 BR BKN012 BKN016 08/06 Q1028 NOSIG
TAF LFPO 240500Z 2406/2512 01008KT 4000 BR BKN025 
     TEMPO 2406/2408 BKN012 
     PROB30 
     TEMPO 2406/2408 2500 BR BKN007 
     BECMG 2408/2410 9999 NSW 
     BECMG 2416/2419 CAVOK 
     PROB30 
     TEMPO 2504/2507 4000 BR 
     BECMG 2508/2511 BKN030
       
LFBP 240700Z AUTO 12004KT CAVOK 08/04 Q1025 NOSIG
TAF AMD LFBP 240511Z 2406/2506 VRB03KT CAVOK 
     BECMG 2410/2412 03008KT 
     BECMG 2420/2422 23005KT 
     PROB40 2500/2506 3000 BR BKN005 
     PROB30 2500/2506 0500 FG VV///
       
LFRD 240700Z AUTO 03003KT 360V060 3300 BR OVC006 09/08 Q1029 TEMPO BKN004 BECMG 9999 NSW
TAF LFRD 240500Z 2406/2506 VRB05KT 3000 BR BKN040 
     TEMPO 2406/2410 BKN004 
     BECMG 2407/2409 9999 NSW 
     BECMG 2410/2412 01010KT
       
LFRQ 240700Z AUTO 03005KT 3200 BR FEW004 06/05 Q1030 TEMPO 1500 BR BKN004
TAF LFRQ 240500Z 2406/2506 05006KT 6000 NSC 
     TEMPO 2406/2409 1500 BR BKN004
       
LFKB 240700Z AUTO 20006KT CAVOK 14/M01 Q1022 NOSIG
TAF LFKB 240200Z 2403/2503 23004KT CAVOK TX20/2412Z TN08/2405Z 
     BECMG 2408/2410 06006KT 
     BECMG 2414/2416 14006KT 
     BECMG 2418/2419 24005KT
       
LFRL 240700Z AUTO 04004KT 010V070 0250 0200 R23/0225N R05/0325N FG VV/// 06/05 Q1030
LFML 240700Z AUTO 10003KT 040V140 CAVOK 11/01 Q1023 NOSIG
TAF LFML 240200Z 2403/2509 VRB05KT CAVOK TX24/2414Z TN08/2405Z 
     BECMG 2413/2415 22008KT 
     BECMG 2417/2419 VRB05KT 
     BECMG 2500/2502 35010KT 
     BECMG 2504/2506 34015G30KT
       
LFQA 240700Z AUTO 27004KT 0200 FG VV/// 03/03 Q1027
LFMP 240700Z AUTO VRB01KT CAVOK 14/02 Q1023 NOSIG
TAF LFMP 240200Z 2403/2503 25005KT CAVOK 
     BECMG 2410/2412 09010KT FEW050 
     BECMG 2417/2419 33010KT
       
LFSI 240700Z AUTO 00000KT 1800 BR FEW010 BKN033 OVC039 01/00 Q1026
TAF LFSI 240200Z 2403/2503 VRB02KT 0600 FG VV/// 
     BECMG 2407/2409 6000 NSW SCT005 BKN012 
     BECMG 2412/2414 SCT020
       
LFBE 240700Z AUTO 08002KT CAVOK 03/02 Q1026 TEMPO 3000 BR
TAF LFBE 240500Z 2406/2506 VRB02KT CAVOK 
     PROB30 
     TEMPO 2406/2408 3000 BR 
     BECMG 2410/2412 35010KT 
     BECMG 2418/2420 30005KT 
     PROB30 
     TEMPO 2500/2506 BKN012
       
LFKC 240700Z AUTO 17005KT CAVOK 12/05 Q1023 NOSIG
TAF LFKC 240200Z 2403/2503 19004KT CAVOK TX20/2412Z TN07/2405Z 
     BECMG 2408/2409 02007KT 
     BECMG 2418/2419 18005KT
       
LFLL 240700Z 00000KT 7000 NSC 06/04 Q1025 NOSIG
TAF LFLL 240500Z 2406/2512 VRB02KT 6000 NSC 
     BECMG 2406/2407 CAVOK 
     BECMG 2409/2412 36010KT 
     PROB40 
     TEMPO 2503/2509 BKN014 
     TEMPO 2508/2512 36015G25KT
       
LFLS 240700Z AUTO 10004KT CAVOK 05/02 Q1025 NOSIG
TAF LFLS 240200Z 2403/2503 10005KT CAVOK 
     BECMG 2409/2412 35008KT 
     PROB30 
     TEMPO 2501/2503 VRB02KT 0800 FG BKN004
       
LFSX 240700Z AUTO 00000KT 7000 NSC 03/01 Q1025
LFLN 240700Z AUTO 15003KT 4400 BR NSC 02/01 Q1026 TEMPO BKN003 BECMG 7000 NSW
TAF LFLN 240500Z 2406/2415 VRB02KT 7000 NSC 
     TEMPO 2406/2408 4000 BR 
     PROB40 
     TEMPO 2406/2408 0800 BCFG BKN003 
     BECMG 2409/2412 30007KT CAVOK 
     BECMG 2412/2415 SCT030
       
LFMY 240700Z AUTO 33001KT CAVOK 07/02 Q1023
LFMK 240700Z AUTO VRB02KT CAVOK 08/04 Q1025 BECMG 28012KT
TAF LFMK 240200Z 2403/2503 VRB04KT CAVOK 
     BECMG 2408/2410 28012KT
       
LFKS 240700Z AUTO 01004KT CAVOK 14/03 Q1022
TAF LFKS 240200Z 2403/2503 27005KT CAVOK 
     TEMPO 2410/2416 13010KT
       
LFRG 240700Z AUTO 06004KT 020V100 9999 FEW029 OVC039 07/05 Q1029 TEMPO BKN008
TAF LFRG 240500Z 2406/2415 04005KT 9999 BKN030 
     TEMPO 2406/2410 BKN008 
     BECMG 2410/2412 01010KT
       
LFRN 240700Z AUTO VRB03KT 2500 BR OVC047 06/06 Q1029 TEMPO BKN004 BECMG 9999 NSW
TAF LFRN 240500Z 2406/2506 VRB05KT 3000 BR BKN040 
     PROB40 
     TEMPO 2406/2410 BKN004 
     BECMG 2407/2409 9999 NSW 
     BECMG 2412/2414 01010KT 
     BECMG 2422/2424 35005KT 
     BECMG 2500/2502 3000 BR 
     TEMPO 2502/2506 0500 FG
       
LFKF 240700Z AUTO 00000KT 9999 OVC003 06/05 Q1023 BECMG 22012KT NSC
TAF LFKF 240200Z 2403/2503 05003KT CAVOK 
     PROB30 
     TEMPO 2403/2408 7000 BKN005 
     BECMG 2408/2409 22012KT
       
LFGJ 240700Z AUTO 06001KT 7000 NSC 04/02 Q1025 TEMPO 2000 BR
TAF LFGJ 240500Z 2406/2415 VRB03KT 7000 NSC 
     TEMPO 2406/2408 2000 BR 
     BECMG 2412/2415 34005KT SCT030 BKN050
       
LFOB 240700Z AUTO 36009KT 350V080 9999 FEW012 BKN020 OVC045 07/05 Q1028 TEMPO BKN013 OVC040
TAF LFOB 240500Z 2406/2506 01008KT 9999 OVC030 
     TEMPO 2406/2410 BKN013 OVC040
       
LFPN 240700Z AUTO 04007KT 3600 BR OVC011 08/06 Q1027 BECMG 6000 NSW BKN023
TAF LFPN 240500Z 2406/2415 03008KT 6000 BKN023 
     TEMPO 2406/2408 4000 BR BKN012 
     PROB30 
     TEMPO 2406/2408 2000 BR BKN006
       
LFOT 240700Z AUTO 34003KT 4500 BR OVC039 05/04 Q1028 TEMPO 2500 BR VV///
TAF LFOT 240500Z 2406/2506 01007KT 6000 BKN030 
     TEMPO 2406/2409 2500 BR 
     PROB30 
     TEMPO 2406/2408 0800 FG VV/// 
     BECMG 2418/2420 CAVOK 
     PROB30 
     TEMPO 2504/2506 2000 BR
       
LFOP 240700Z AUTO 02007KT 9999 ////// 07/05 Q1028
TAF LFOP 240500Z 2406/2506 01008KT 9999 OVC030 
     TEMPO 2406/2410 BKN013 OVC040
       
LFOK 240700Z AUTO VRB02KT 0150 0100 R10/0175N R28/0200N FG VV/// 02/02 Q1027 NOSIG
TAF AMD LFOK 240549Z 2406/2506 36007KT 2000 BR SCT020 
     TEMPO 2406/2409 0300 FG VV/// 
     BECMG 2409/2411 8000 NSW
       
LFPV 240700Z AUTO 03004KT 340V050 3700 BR OVC008 08/06 Q1027 BECMG 9999 NSW BKN020
TAF LFPV 240200Z 2403/2503 02005KT 4000 BR BKN008 BKN025 
     TEMPO 2404/2407 1500 BR OVC005 
     BECMG 2407/2410 9999 NSW BKN020
       
LFMU 240700Z AUTO 32003KT CAVOK 09/04 Q1023 NOSIG
TAF LFMU 240200Z 2403/2503 28005KT CAVOK 
     BECMG 2411/2413 16010KT 
     BECMG 2418/2420 28008KT
       
LFPM 240700Z AUTO 01004KT 340V080 1800 BR OVC006 07/06 Q1027